Rogerslacy, Texas
Current Conditions -  °F | °C
As of 8:55 PM on Friday 21 Nov 2014 (Local Time) from KT65 Reporting Station
Broken Clouds Broken Clouds  
Wind Chill: 22°   Ceiling: 8000
Heat Index: 22°   Visibility: 10mi
Dew Point: 19°   Wind: 8mph
Humidity: 81%   Direction: 130°SE
Pressure: 30"   Gusts: NA
Location:  26.2692°N, 97.8326°W
Report Text: KT65 220255Z AUTO 13007KT 10SM SCT070 BKN080 22/19 A3000 RMK AO2 T02210188
Loading
Personal Weather Stations






























Interactive Weather Map New forecast layout! Learn more

10-Day Weather Forecast

Advertisements
Track Severe Weather on mobile